sensor_id;sensor_type;location;lat;lon;timestamp;pressure;altitude;pressure_sealevel;temperature;humidity
17525;BME280;40431;52.198;9.902;2022-08-19T00:00:35;100366.88;;;20.47;100.00
17525;BME280;40431;52.198;9.902;2022-08-19T00:03:02;100360.66;;;20.37;100.00
17525;BME280;40431;52.198;9.902;2022-08-19T00:05:28;100348.03;;;20.26;100.00
17525;BME280;40431;52.198;9.902;2022-08-19T00:07:55;100340.56;;;20.18;100.00
17525;BME280;40431;52.198;9.902;2022-08-19T00:10:22;100342.38;;;20.10;100.00
17525;BME280;40431;52.198;9.902;2022-08-19T00:12:49;100333.06;;;20.02;100.00
17525;BME280;40431;52.198;9.902;2022-08-19T00:15:19;100333.13;;;19.93;100.00
17525;BME280;40431;52.198;9.902;2022-08-19T00:17:47;100326.06;;;19.90;100.00
17525;BME280;40431;52.198;9.902;2022-08-19T00:20:17;100326.72;;;19.84;100.00
17525;BME280;40431;52.198;9.902;2022-08-19T00:22:44;100325.75;;;19.75;100.00
17525;BME280;40431;52.198;9.902;2022-08-19T00:25:11;100330.22;;;19.76;100.00
17525;BME280;40431;52.198;9.902;2022-08-19T00:27:39;100323.00;;;19.75;100.00
17525;BME280;40431;52.198;9.902;2022-08-19T00:30:07;100332.59;;;19.71;100.00
17525;BME280;40431;52.198;9.902;2022-08-19T00:32:36;100331.19;;;19.67;100.00
17525;BME280;40431;52.198;9.902;2022-08-19T00:35:04;100329.13;;;19.69;100.00
17525;BME280;40431;52.198;9.902;2022-08-19T00:37:31;100319.78;;;19.62;100.00
17525;BME280;40431;52.198;9.902;2022-08-19T00:39:58;100323.50;;;19.52;100.00
17525;BME280;40431;52.198;9.902;2022-08-19T00:42:24;100314.56;;;19.50;100.00
17525;BME280;40431;52.198;9.902;2022-08-19T00:44:53;100315.56;;;19.49;100.00
17525;BME280;40431;52.198;9.902;2022-08-19T00:47:19;100316.19;;;19.43;100.00
17525;BME280;40431;52.198;9.902;2022-08-19T00:49:51;100317.38;;;19.41;100.00
17525;BME280;40431;52.198;9.902;2022-08-19T00:52:21;100319.66;;;19.45;100.00
17525;BME280;40431;52.198;9.902;2022-08-19T00:54:49;100322.63;;;19.52;100.00
17525;BME280;40431;52.198;9.902;2022-08-19T00:57:18;100323.81;;;19.49;100.00
17525;BME280;40431;52.198;9.902;2022-08-19T00:59:51;100310.00;;;19.41;100.00
17525;BME280;40431;52.198;9.902;2022-08-19T01:02:18;100315.50;;;19.41;100.00
17525;BME280;40431;52.198;9.902;2022-08-19T01:04:45;100320.34;;;19.47;100.00
17525;BME280;40431;52.198;9.902;2022-08-19T01:07:13;100327.59;;;19.48;100.00
17525;BME280;40431;52.198;9.902;2022-08-19T01:09:39;100321.38;;;19.46;100.00
17525;BME280;40431;52.198;9.902;2022-08-19T01:12:06;100324.44;;;19.43;100.00
17525;BME280;40431;52.198;9.902;2022-08-19T01:14:33;100332.00;;;19.41;100.00
17525;BME280;40431;52.198;9.902;2022-08-19T01:17:00;100324.44;;;19.43;100.00
17525;BME280;40431;52.198;9.902;2022-08-19T01:19:29;100317.84;;;19.36;100.00
17525;BME280;40431;52.198;9.902;2022-08-19T01:22:01;100309.81;;;19.25;100.00
17525;BME280;40431;52.198;9.902;2022-08-19T01:24:30;100304.47;;;19.23;100.00
17525;BME280;40431;52.198;9.902;2022-08-19T01:26:57;100302.34;;;19.17;100.00
17525;BME280;40431;52.198;9.902;2022-08-19T01:29:23;100301.50;;;19.16;100.00
17525;BME280;40431;52.198;9.902;2022-08-19T01:31:50;100307.59;;;19.10;100.00
17525;BME280;40431;52.198;9.902;2022-08-19T01:34:18;100308.25;;;19.04;100.00
17525;BME280;40431;52.198;9.902;2022-08-19T01:36:47;100311.34;;;18.91;100.00
17525;BME280;40431;52.198;9.902;2022-08-19T01:39:18;100300.41;;;18.81;100.00
17525;BME280;40431;52.198;9.902;2022-08-19T01:41:47;100300.41;;;18.81;100.00
17525;BME280;40431;52.198;9.902;2022-08-19T01:44:14;100291.91;;;18.75;100.00
17525;BME280;40431;52.198;9.902;2022-08-19T01:46:41;100289.88;;;18.77;100.00
17525;BME280;40431;52.198;9.902;2022-08-19T01:49:09;100293.09;;;18.72;100.00
17525;BME280;40431;52.198;9.902;2022-08-19T01:51:36;100286.56;;;18.73;100.00
17525;BME280;40431;52.198;9.902;2022-08-19T01:54:04;100293.78;;;18.74;100.00
17525;BME280;40431;52.198;9.902;2022-08-19T01:56:30;100296.53;;;18.74;100.00
17525;BME280;40431;52.198;9.902;2022-08-19T01:59:01;100297.66;;;18.81;100.00
17525;BME280;40431;52.198;9.902;2022-08-19T02:01:28;100303.84;;;18.83;100.00
17525;BME280;40431;52.198;9.902;2022-08-19T02:03:57;100299.34;;;18.92;100.00
17525;BME280;40431;52.198;9.902;2022-08-19T02:06:26;100304.84;;;18.92;100.00
17525;BME280;40431;52.198;9.902;2022-08-19T02:08:52;100308.59;;;18.91;100.00
17525;BME280;40431;52.198;9.902;2022-08-19T02:11:23;100304.28;;;18.89;100.00
17525;BME280;40431;52.198;9.902;2022-08-19T02:13:52;100304.44;;;18.77;100.00
17525;BME280;40431;52.198;9.902;2022-08-19T02:16:20;100295.66;;;18.74;100.00
17525;BME280;40431;52.198;9.902;2022-08-19T02:18:47;100297.53;;;18.73;100.00
17525;BME280;40431;52.198;9.902;2022-08-19T02:21:14;100286.63;;;18.63;100.00
17525;BME280;40431;52.198;9.902;2022-08-19T02:23:40;100290.53;;;18.61;100.00
17525;BME280;40431;52.198;9.902;2022-08-19T02:26:07;100276.09;;;18.59;100.00
17525;BME280;40431;52.198;9.902;2022-08-19T02:28:33;100286.03;;;18.60;100.00
17525;BME280;40431;52.198;9.902;2022-08-19T02:31:00;100285.59;;;18.64;100.00
17525;BME280;40431;52.198;9.902;2022-08-19T02:33:29;100289.19;;;18.65;100.00
17525;BME280;40431;52.198;9.902;2022-08-19T02:35:55;100290.22;;;18.64;100.00
17525;BME280;40431;52.198;9.902;2022-08-19T02:38:21;100294.53;;;18.66;100.00
17525;BME280;40431;52.198;9.902;2022-08-19T02:40:55;100296.53;;;18.74;100.00
17525;BME280;40431;52.198;9.902;2022-08-19T02:43:22;100302.75;;;18.76;100.00
17525;BME280;40431;52.198;9.902;2022-08-19T02:45:50;100313.41;;;18.79;100.00
17525;BME280;40431;52.198;9.902;2022-08-19T02:48:17;100311.75;;;18.86;100.00
17525;BME280;40431;52.198;9.902;2022-08-19T02:50:46;100315.84;;;18.92;100.00
17525;BME280;40431;52.198;9.902;2022-08-19T02:53:13;100307.53;;;19.02;100.00
17525;BME280;40431;52.198;9.902;2022-08-19T02:55:46;100313.19;;;19.00;100.00
17525;BME280;40431;52.198;9.902;2022-08-19T02:58:13;100304.53;;;18.95;100.00
17525;BME280;40431;52.198;9.902;2022-08-19T03:00:44;100321.88;;;18.96;100.00
17525;BME280;40431;52.198;9.902;2022-08-19T03:03:11;100313.34;;;18.99;100.00
17525;BME280;40431;52.198;9.902;2022-08-19T03:05:38;100318.88;;;18.89;100.00
17525;BME280;40431;52.198;9.902;2022-08-19T03:08:06;100309.00;;;18.96;100.00
17525;BME280;40431;52.198;9.902;2022-08-19T03:10:40;100314.03;;;19.01;100.00
17525;BME280;40431;52.198;9.902;2022-08-19T03:13:09;100314.75;;;19.03;100.00
17525;BME280;40431;52.198;9.902;2022-08-19T03:15:39;100319.53;;;19.01;100.00
17525;BME280;40431;52.198;9.902;2022-08-19T03:18:05;100328.81;;;19.00;100.00
17525;BME280;40431;52.198;9.902;2022-08-19T03:20:32;100332.00;;;18.95;100.00
17525;BME280;40431;52.198;9.902;2022-08-19T03:22:58;100329.25;;;18.95;100.00
17525;BME280;40431;52.198;9.902;2022-08-19T03:25:26;100322.75;;;18.86;100.00
17525;BME280;40431;52.198;9.902;2022-08-19T03:27:52;100320.16;;;18.95;100.00
17525;BME280;40431;52.198;9.902;2022-08-19T03:30:19;100326.50;;;18.95;100.00
17525;BME280;40431;52.198;9.902;2022-08-19T03:32:45;100320.44;;;18.92;100.00
17525;BME280;40431;52.198;9.902;2022-08-19T03:35:12;100321.88;;;18.96;100.00
17525;BME280;40431;52.198;9.902;2022-08-19T03:37:38;100320.69;;;18.98;100.00
17525;BME280;40431;52.198;9.902;2022-08-19T03:40:06;100308.84;;;18.98;100.00
17525;BME280;40431;52.198;9.902;2022-08-19T03:42:34;100316.38;;;18.96;100.00
17525;BME280;40431;52.198;9.902;2022-08-19T03:45:00;100322.50;;;18.90;100.00
17525;BME280;40431;52.198;9.902;2022-08-19T03:47:26;100310.91;;;18.86;100.00
17525;BME280;40431;52.198;9.902;2022-08-19T03:49:53;100311.53;;;18.80;100.00
17525;BME280;40431;52.198;9.902;2022-08-19T03:52:19;100310.97;;;18.76;100.00
17525;BME280;40431;52.198;9.902;2022-08-19T03:54:46;100313.31;;;18.71;100.00
17525;BME280;40431;52.198;9.902;2022-08-19T03:57:12;100315.34;;;18.69;100.00
17525;BME280;40431;52.198;9.902;2022-08-19T03:59:39;100317.00;;;18.80;100.00
17525;BME280;40431;52.198;9.902;2022-08-19T04:02:09;100314.50;;;18.68;100.00
17525;BME280;40431;52.198;9.902;2022-08-19T04:04:36;100312.31;;;18.72;100.00
17525;BME280;40431;52.198;9.902;2022-08-19T04:07:03;100324.00;;;18.74;100.00
17525;BME280;40431;52.198;9.902;2022-08-19T04:09:29;100329.22;;;18.67;100.00
17525;BME280;40431;52.198;9.902;2022-08-19T04:11:57;100324.22;;;18.63;100.00
17525;BME280;40431;52.198;9.902;2022-08-19T04:14:25;100322.78;;;18.59;100.00
17525;BME280;40431;52.198;9.902;2022-08-19T04:16:57;100312.97;;;18.56;100.00
17525;BME280;40431;52.198;9.902;2022-08-19T04:19:24;100312.41;;;18.52;100.00
17525;BME280;40431;52.198;9.902;2022-08-19T04:21:52;100319.66;;;18.44;100.00
17525;BME280;40431;52.198;9.902;2022-08-19T04:24:20;100316.03;;;18.43;100.00
17525;BME280;40431;52.198;9.902;2022-08-19T04:26:47;100317.38;;;18.39;100.00
17525;BME280;40431;52.198;9.902;2022-08-19T04:29:15;100315.63;;;18.38;100.00
17525;BME280;40431;52.198;9.902;2022-08-19T04:31:43;100331.63;;;18.52;100.00
17525;BME280;40431;52.198;9.902;2022-08-19T04:34:14;100332.63;;;18.51;100.00
17525;BME280;40431;52.198;9.902;2022-08-19T04:36:42;100343.16;;;18.56;100.00
17525;BME280;40431;52.198;9.902;2022-08-19T04:39:11;100335.78;;;18.57;100.00
17525;BME280;40431;52.198;9.902;2022-08-19T04:41:38;100333.75;;;18.59;100.00
17525;BME280;40431;52.198;9.902;2022-08-19T04:44:22;100340.53;;;18.55;100.00
17525;BME280;40431;52.198;9.902;2022-08-19T04:46:50;100336.22;;;18.52;100.00
17525;BME280;40431;52.198;9.902;2022-08-19T04:49:20;100339.84;;;18.52;100.00
17525;BME280;40431;52.198;9.902;2022-08-19T04:51:48;100343.75;;;18.50;100.00
17525;BME280;40431;52.198;9.902;2022-08-19T04:54:15;100345.78;;;18.48;100.00
17525;BME280;40431;52.198;9.902;2022-08-19T04:56:42;100347.50;;;18.49;100.00
17525;BME280;40431;52.198;9.902;2022-08-19T04:59:09;100341.59;;;18.44;100.00
17525;BME280;40431;52.198;9.902;2022-08-19T05:01:36;100344.50;;;18.42;100.00
17525;BME280;40431;52.198;9.902;2022-08-19T05:04:04;100342.94;;;18.40;100.00
17525;BME280;40431;52.198;9.902;2022-08-19T05:06:32;100334.41;;;18.43;100.00
17525;BME280;40431;52.198;9.902;2022-08-19T05:08:59;100333.69;;;18.41;100.00
17525;BME280;40431;52.198;9.902;2022-08-19T05:11:32;100327.34;;;18.30;100.00
17525;BME280;40431;52.198;9.902;2022-08-19T05:13:59;100327.66;;;18.27;100.00
17525;BME280;40431;52.198;9.902;2022-08-19T05:16:27;100325.66;;;18.19;100.00
17525;BME280;40431;52.198;9.902;2022-08-19T05:18:54;100330.16;;;18.11;100.00
17525;BME280;40431;52.198;9.902;2022-08-19T05:21:40;100323.38;;;18.15;100.00
17525;BME280;40431;52.198;9.902;2022-08-19T05:24:25;100321.63;;;18.14;100.00
17525;BME280;40431;52.198;9.902;2022-08-19T05:26:53;100325.09;;;18.16;100.00
17525;BME280;40431;52.198;9.902;2022-08-19T05:29:23;100329.56;;;18.17;100.00
17525;BME280;40431;52.198;9.902;2022-08-19T05:31:50;100342.13;;;18.19;100.00
17525;BME280;40431;52.198;9.902;2022-08-19T05:34:18;100343.25;;;18.27;100.00
17525;BME280;40431;52.198;9.902;2022-08-19T05:36:49;100353.22;;;18.28;100.00
17525;BME280;40431;52.198;9.902;2022-08-19T05:39:18;100345.56;;;18.31;100.00
17525;BME280;40431;52.198;9.902;2022-08-19T05:41:47;100346.41;;;18.32;100.00
17525;BME280;40431;52.198;9.902;2022-08-19T05:44:14;100344.56;;;18.23;100.00
17525;BME280;40431;52.198;9.902;2022-08-19T05:46:43;100340.66;;;18.25;100.00
17525;BME280;40431;52.198;9.902;2022-08-19T05:49:12;100341.97;;;18.31;100.00
17525;BME280;40431;52.198;9.902;2022-08-19T05:51:39;100342.66;;;18.33;100.00
17525;BME280;40431;52.198;9.902;2022-08-19T05:54:07;100345.81;;;18.38;100.00
17525;BME280;40431;52.198;9.902;2022-08-19T05:56:34;100346.94;;;18.45;100.00
17525;BME280;40431;52.198;9.902;2022-08-19T05:59:03;100343.81;;;18.40;100.00
17525;BME280;40431;52.198;9.902;2022-08-19T06:01:36;100344.97;;;18.38;100.00
17525;BME280;40431;52.198;9.902;2022-08-19T06:04:03;100340.34;;;18.38;100.00
17525;BME280;40431;52.198;9.902;2022-08-19T06:06:30;100340.03;;;18.41;100.00
17525;BME280;40431;52.198;9.902;2022-08-19T06:08:56;100340.03;;;18.41;100.00
17525;BME280;40431;52.198;9.902;2022-08-19T06:11:32;100340.34;;;18.38;100.00
17525;BME280;40431;52.198;9.902;2022-08-19T06:14:01;100345.94;;;18.46;100.00
17525;BME280;40431;52.198;9.902;2022-08-19T06:16:28;100350.88;;;18.43;100.00
17525;BME280;40431;52.198;9.902;2022-08-19T06:19:02;100362.81;;;18.51;100.00
17525;BME280;40431;52.198;9.902;2022-08-19T06:21:30;100368.31;;;18.51;100.00
17525;BME280;40431;52.198;9.902;2022-08-19T06:23:56;100361.09;;;18.50;100.00
17525;BME280;40431;52.198;9.902;2022-08-19T06:26:24;100379.44;;;18.50;100.00
17525;BME280;40431;52.198;9.902;2022-08-19T06:28:52;100376.13;;;18.46;100.00
17525;BME280;40431;52.198;9.902;2022-08-19T06:31:22;100372.69;;;18.44;100.00
17525;BME280;40431;52.198;9.902;2022-08-19T06:33:49;100373.09;;;18.49;100.00
17525;BME280;40431;52.198;9.902;2022-08-19T06:36:17;100373.81;;;18.51;100.00
17525;BME280;40431;52.198;9.902;2022-08-19T06:38:44;100366.56;;;18.50;100.00
17525;BME280;40431;52.198;9.902;2022-08-19T06:41:10;100384.47;;;18.64;100.00
17525;BME280;40431;52.198;9.902;2022-08-19T06:43:38;100374.66;;;18.62;100.00
17525;BME280;40431;52.198;9.902;2022-08-19T06:46:10;100379.53;;;18.68;100.00
17525;BME280;40431;52.198;9.902;2022-08-19T06:48:36;100383.31;;;18.67;100.00
17525;BME280;40431;52.198;9.902;2022-08-19T06:51:03;100382.41;;;18.66;100.00
17525;BME280;40431;52.198;9.902;2022-08-19T06:53:31;100384.16;;;18.67;100.00
17525;BME280;40431;52.198;9.902;2022-08-19T06:55:57;100383.88;;;18.61;100.00
17525;BME280;40431;52.198;9.902;2022-08-19T06:58:27;100396.03;;;18.58;100.00
17525;BME280;40431;52.198;9.902;2022-08-19T07:00:59;100409.47;;;18.61;100.00
17525;BME280;40431;52.198;9.902;2022-08-19T07:03:27;100407.44;;;18.63;100.00
17525;BME280;40431;52.198;9.902;2022-08-19T07:05:54;100416.69;;;18.72;100.00
17525;BME280;40431;52.198;9.902;2022-08-19T07:08:20;100409.53;;;18.79;100.00
17525;BME280;40431;52.198;9.902;2022-08-19T07:10:46;100418.00;;;18.68;100.00
17525;BME280;40431;52.198;9.902;2022-08-19T07:13:14;100421.13;;;18.73;100.00
17525;BME280;40431;52.198;9.902;2022-08-19T07:15:40;100432.25;;;18.81;100.00
17525;BME280;40431;52.198;9.902;2022-08-19T07:18:08;100428.03;;;18.77;100.00
17525;BME280;40431;52.198;9.902;2022-08-19T07:20:34;100417.63;;;18.81;100.00
17525;BME280;40431;52.198;9.902;2022-08-19T07:23:02;100431.09;;;18.74;100.00
17525;BME280;40431;52.198;9.902;2022-08-19T07:25:28;100434.28;;;18.79;100.00
17525;BME280;40431;52.198;9.902;2022-08-19T07:27:54;100442.06;;;18.94;100.00
17525;BME280;40431;52.198;9.902;2022-08-19T07:30:21;100437.53;;;19.02;100.00
17525;BME280;40431;52.198;9.902;2022-08-19T07:32:49;100446.16;;;19.17;100.00
17525;BME280;40431;52.198;9.902;2022-08-19T07:35:19;100449.44;;;19.21;100.00
17525;BME280;40431;52.198;9.902;2022-08-19T07:37:45;100455.50;;;19.25;100.00
17525;BME280;40431;52.198;9.902;2022-08-19T07:40:12;100464.88;;;19.32;97.64
17525;BME280;40431;52.198;9.902;2022-08-19T07:42:39;100467.09;;;19.46;97.54
17525;BME280;40431;52.198;9.902;2022-08-19T07:45:06;100469.06;;;19.54;96.48
17525;BME280;40431;52.198;9.902;2022-08-19T07:47:33;100476.56;;;19.62;95.29
17525;BME280;40431;52.198;9.902;2022-08-19T07:49:59;100466.13;;;19.65;94.73
17525;BME280;40431;52.198;9.902;2022-08-19T07:52:27;100473.25;;;19.58;93.66
17525;BME280;40431;52.198;9.902;2022-08-19T07:54:53;100464.88;;;19.60;94.39
17525;BME280;40431;52.198;9.902;2022-08-19T07:57:20;100472.47;;;19.66;94.30
17525;BME280;40431;52.198;9.902;2022-08-19T07:59:46;100469.31;;;19.61;93.62
17525;BME280;40431;52.198;9.902;2022-08-19T08:02:12;100475.38;;;19.64;93.54
17525;BME280;40431;52.198;9.902;2022-08-19T08:04:39;100471.72;;;19.74;91.02
17525;BME280;40431;52.198;9.902;2022-08-19T08:07:22;100471.31;;;19.68;91.86
17525;BME280;40431;52.198;9.902;2022-08-19T08:10:08;100473.91;;;19.70;92.29
17525;BME280;40431;52.198;9.902;2022-08-19T08:12:38;100471.31;;;19.68;92.79
17525;BME280;40431;52.198;9.902;2022-08-19T08:15:10;100468.09;;;19.73;90.21
17525;BME280;40431;52.198;9.902;2022-08-19T08:17:37;100474.63;;;19.72;90.07
17525;BME280;40431;52.198;9.902;2022-08-19T08:20:05;100475.47;;;19.82;90.56
17525;BME280;40431;52.198;9.902;2022-08-19T08:22:33;100462.25;;;20.04;92.17
17525;BME280;40431;52.198;9.902;2022-08-19T08:25:20;100464.59;;;20.17;88.03
17525;BME280;40431;52.198;9.902;2022-08-19T08:27:48;100468.28;;;20.26;87.08
17525;BME280;40431;52.198;9.902;2022-08-19T08:30:16;100462.53;;;20.37;88.52
17525;BME280;40431;52.198;9.902;2022-08-19T08:32:43;100463.41;;;20.64;88.39
17525;BME280;40431;52.198;9.902;2022-08-19T08:35:12;100467.44;;;20.96;87.78
17525;BME280;40431;52.198;9.902;2022-08-19T08:37:39;100468.56;;;21.11;82.74
17525;BME280;40431;52.198;9.902;2022-08-19T08:40:10;100473.91;;;21.13;82.09
17525;BME280;40431;52.198;9.902;2022-08-19T08:42:50;100482.16;;;21.13;81.81
17525;BME280;40431;52.198;9.902;2022-08-19T08:45:18;100480.22;;;21.05;81.50
17525;BME280;40431;52.198;9.902;2022-08-19T08:47:47;100474.06;;;21.11;80.76
17525;BME280;40431;52.198;9.902;2022-08-19T08:50:19;100483.88;;;21.14;81.12
17525;BME280;40431;52.198;9.902;2022-08-19T08:52:50;100486.78;;;21.12;79.22
17525;BME280;40431;52.198;9.902;2022-08-19T08:55:20;100487.84;;;21.11;77.68
17525;BME280;40431;52.198;9.902;2022-08-19T08:57:52;100473.22;;;21.19;77.53
17525;BME280;40431;52.198;9.902;2022-08-19T09:00:22;100480.38;;;21.38;77.09
17525;BME280;40431;52.198;9.902;2022-08-19T09:02:50;100483.50;;;21.43;75.95
17525;BME280;40431;52.198;9.902;2022-08-19T09:05:17;100476.84;;;21.54;75.33
17525;BME280;40431;52.198;9.902;2022-08-19T09:07:52;100469.13;;;21.66;75.12
17525;BME280;40431;52.198;9.902;2022-08-19T09:10:26;100472.25;;;21.79;75.33
17525;BME280;40431;52.198;9.902;2022-08-19T09:13:05;100459.28;;;21.63;77.18
17525;BME280;40431;52.198;9.902;2022-08-19T09:15:37;100456.81;;;21.52;76.69
17525;BME280;40431;52.198;9.902;2022-08-19T09:18:05;100462.84;;;21.47;74.84
17525;BME280;40431;52.198;9.902;2022-08-19T09:20:32;100461.44;;;21.43;75.33
17525;BME280;40431;52.198;9.902;2022-08-19T09:22:58;100460.75;;;21.49;75.27
17525;BME280;40431;52.198;9.902;2022-08-19T09:25:25;100467.81;;;21.44;75.08
17525;BME280;40431;52.198;9.902;2022-08-19T09:27:52;100466.72;;;21.36;76.01
17525;BME280;40431;52.198;9.902;2022-08-19T09:30:23;100472.78;;;21.40;75.31
17525;BME280;40431;52.198;9.902;2022-08-19T09:32:50;100462.44;;;21.34;75.04
17525;BME280;40431;52.198;9.902;2022-08-19T09:35:32;100464.53;;;21.40;74.53
17525;BME280;40431;52.198;9.902;2022-08-19T09:37:59;100466.38;;;21.66;74.08
17525;BME280;40431;52.198;9.902;2022-08-19T09:40:26;100472.09;;;21.81;72.41
17525;BME280;40431;52.198;9.902;2022-08-19T09:42:53;100465.34;;;21.75;72.09
17525;BME280;40431;52.198;9.902;2022-08-19T09:45:21;100467.06;;;21.76;71.43
17525;BME280;40431;52.198;9.902;2022-08-19T09:47:48;100468.81;;;21.77;71.82
17525;BME280;40431;52.198;9.902;2022-08-19T09:50:16;100465.84;;;21.71;73.17
17525;BME280;40431;52.198;9.902;2022-08-19T09:52:44;100454.66;;;21.80;73.09
17525;BME280;40431;52.198;9.902;2022-08-19T09:55:12;100452.59;;;21.91;72.39
17525;BME280;40431;52.198;9.902;2022-08-19T09:57:38;100451.22;;;21.95;71.82
17525;BME280;40431;52.198;9.902;2022-08-19T10:00:07;100444.69;;;22.04;74.25
17525;BME280;40431;52.198;9.902;2022-08-19T10:02:35;100440.41;;;22.10;71.48
17525;BME280;40431;52.198;9.902;2022-08-19T10:05:01;100450.19;;;22.12;71.93
17525;BME280;40431;52.198;9.902;2022-08-19T10:07:55;100437.63;;;22.26;73.75
17525;BME280;40431;52.198;9.902;2022-08-19T10:10:22;100441.09;;;22.45;69.95
17525;BME280;40431;52.198;9.902;2022-08-19T10:12:49;100431.56;;;22.64;70.84
17525;BME280;40431;52.198;9.902;2022-08-19T10:15:15;100442.03;;;22.85;69.67
17525;BME280;40431;52.198;9.902;2022-08-19T10:17:44;100442.91;;;22.94;68.64
17525;BME280;40431;52.198;9.902;2022-08-19T10:20:11;100445.84;;;22.84;68.53
17525;BME280;40431;52.198;9.902;2022-08-19T10:22:37;100439.44;;;22.92;68.23
17525;BME280;40431;52.198;9.902;2022-08-19T10:25:06;100435.97;;;22.98;67.72
17525;BME280;40431;52.198;9.902;2022-08-19T10:27:33;100431.09;;;23.08;67.28
17525;BME280;40431;52.198;9.902;2022-08-19T10:29:59;100418.34;;;22.91;65.27
17525;BME280;40431;52.198;9.902;2022-08-19T10:32:26;100412.66;;;22.92;65.36
17525;BME280;40431;52.198;9.902;2022-08-19T10:34:52;100407.63;;;22.96;63.98
17525;BME280;40431;52.198;9.902;2022-08-19T10:37:19;100403.78;;;23.05;63.98
17525;BME280;40431;52.198;9.902;2022-08-19T10:39:46;100401.97;;;23.29;63.96
17525;BME280;40431;52.198;9.902;2022-08-19T10:42:14;100390.91;;;23.29;63.82
17525;BME280;40431;52.198;9.902;2022-08-19T10:44:42;100397.47;;;23.36;64.08
17525;BME280;40431;52.198;9.902;2022-08-19T10:47:08;100391.94;;;23.36;64.03
17525;BME280;40431;52.198;9.902;2022-08-19T10:49:35;100394.72;;;23.28;63.78
17525;BME280;40431;52.198;9.902;2022-08-19T10:52:21;100387.75;;;23.40;62.69
17525;BME280;40431;52.198;9.902;2022-08-19T10:54:59;100391.19;;;23.42;61.30
17525;BME280;40431;52.198;9.902;2022-08-19T10:57:44;100390.47;;;23.48;61.70
17525;BME280;40431;52.198;9.902;2022-08-19T11:00:12;100387.91;;;23.70;61.16
17525;BME280;40431;52.198;9.902;2022-08-19T11:02:38;100379.59;;;23.70;60.45
17525;BME280;40431;52.198;9.902;2022-08-19T11:05:06;100380.28;;;23.72;60.48
17525;BME280;40431;52.198;9.902;2022-08-19T11:07:32;100368.09;;;23.81;60.62
17525;BME280;40431;52.198;9.902;2022-08-19T11:09:59;100375.72;;;23.79;59.79
17525;BME280;40431;52.198;9.902;2022-08-19T11:12:25;100364.66;;;23.79;59.24
17525;BME280;40431;52.198;9.902;2022-08-19T11:14:54;100364.25;;;23.82;60.22
17525;BME280;40431;52.198;9.902;2022-08-19T11:17:20;100352.09;;;23.92;60.80
17525;BME280;40431;52.198;9.902;2022-08-19T11:19:48;100367.81;;;24.14;58.64
17525;BME280;40431;52.198;9.902;2022-08-19T11:22:15;100360.41;;;24.30;57.64
17525;BME280;40431;52.198;9.902;2022-08-19T11:24:42;100362.81;;;24.33;57.35
17525;BME280;40431;52.198;9.902;2022-08-19T11:27:09;100353.63;;;24.32;56.63
17525;BME280;40431;52.198;9.902;2022-08-19T11:29:38;100352.50;;;24.27;57.20
17525;BME280;40431;52.198;9.902;2022-08-19T11:32:08;100357.72;;;24.22;57.17
17525;BME280;40431;52.198;9.902;2022-08-19T11:34:35;100364.72;;;24.32;57.67
17525;BME280;40431;52.198;9.902;2022-08-19T11:37:03;100360.31;;;24.38;58.12
17525;BME280;40431;52.198;9.902;2022-08-19T11:39:32;100351.94;;;24.46;57.79
17525;BME280;40431;52.198;9.902;2022-08-19T11:41:59;100351.06;;;24.61;57.74
17525;BME280;40431;52.198;9.902;2022-08-19T11:44:26;100345.84;;;24.66;56.67
17525;BME280;40431;52.198;9.902;2022-08-19T11:46:56;100347.97;;;24.64;55.89
17525;BME280;40431;52.198;9.902;2022-08-19T11:49:24;100347.88;;;24.72;57.45
17525;BME280;40431;52.198;9.902;2022-08-19T11:51:50;100343.34;;;24.86;53.76
17525;BME280;40431;52.198;9.902;2022-08-19T11:54:17;100336.09;;;24.85;53.46
17525;BME280;40431;52.198;9.902;2022-08-19T11:56:44;100338.41;;;24.81;53.46
17525;BME280;40431;52.198;9.902;2022-08-19T11:59:12;100329.31;;;24.88;53.44
17525;BME280;40431;52.198;9.902;2022-08-19T12:01:39;100326.88;;;24.99;52.09
17525;BME280;40431;52.198;9.902;2022-08-19T12:04:07;100331.25;;;25.09;52.58
17525;BME280;40431;52.198;9.902;2022-08-19T12:06:38;100335.56;;;25.11;51.78
17525;BME280;40431;52.198;9.902;2022-08-19T12:09:06;100341.53;;;25.30;52.60
17525;BME280;40431;52.198;9.902;2022-08-19T12:11:33;100342.63;;;25.29;51.17
17525;BME280;40431;52.198;9.902;2022-08-19T12:14:00;100343.66;;;25.28;52.86
17525;BME280;40431;52.198;9.902;2022-08-19T12:16:28;100341.84;;;25.35;52.18
17525;BME280;40431;52.198;9.902;2022-08-19T12:18:56;100350.19;;;25.35;52.25
17525;BME280;40431;52.198;9.902;2022-08-19T12:21:26;100342.72;;;25.36;51.76
17525;BME280;40431;52.198;9.902;2022-08-19T12:23:56;100334.41;;;25.21;52.23
17525;BME280;40431;52.198;9.902;2022-08-19T12:26:24;100330.44;;;25.45;52.36
17525;BME280;40431;52.198;9.902;2022-08-19T12:28:50;100333.09;;;25.53;51.60
17525;BME280;40431;52.198;9.902;2022-08-19T12:31:17;100334.94;;;25.67;51.11
17525;BME280;40431;52.198;9.902;2022-08-19T12:33:45;100335.38;;;25.71;50.85
17525;BME280;40431;52.198;9.902;2022-08-19T12:36:14;100333.00;;;25.90;51.05
17525;BME280;40431;52.198;9.902;2022-08-19T12:38:41;100339.50;;;25.97;50.85
17525;BME280;40431;52.198;9.902;2022-08-19T12:41:12;100331.16;;;25.97;49.98
17525;BME280;40431;52.198;9.902;2022-08-19T12:43:39;100335.63;;;25.98;49.15
17525;BME280;40431;52.198;9.902;2022-08-19T12:46:06;100336.97;;;26.02;48.47
17525;BME280;40431;52.198;9.902;2022-08-19T12:48:33;100336.59;;;26.05;48.69